Metar de toute la France(point de départ, Chateauroux, classé dans l'ordre alphabétique actualisée toutes les 30 minutes)






LFBA - Agen/, France
Distance de la station: SSO 307km
Mise à jour: 31/01/2015 04:30
Couvert
Couvert
 Wind from variable
Vent: variable 6 km/h
Température: 5°C
Point de Rosée: 4°C
Humidité: 93%
Baromètre: 986 hPa
Nuages: Couvert
Visibilité: 10 km
Nuages details: nuageux 213 m
Couvert 884 m
2015/01/31 03:30 LFBA 310330Z AUTO VRB03KT 9999 BKN007 OVC029 05/04 Q0986
LFLP - Annecy/, France
Distance de la station: ESE 352km
Mise à jour: 31/01/2015 04:30
partiellement nuageux
partiellement nuageux
 Wind from SE
Vent: SE 11 km/h
Température: 0°C
Wind Chill: -4°C
Point de Rosée: -1°C
Humidité: 93%
Baromètre: 985 hPa
Nuages: partiellement nuageux
Visibilité: 10 km
2015/01/31 03:30 LFLP 310330Z AUTO 13006KT 090V170 9999 NSC M00/M01 Q0985
 
LFOA - Avord/ , France
Distance de la station: ENE 76km
Mise à jour: 31/01/2015 04:30
Couvert
Couvert
 Wind from SO
Vent: SO 9 km/h
Température: 2°C
Wind Chill: -1°C
Point de Rosée: 2°C
Humidité: 100%
Baromètre: 984 hPa
Nuages: Couvert
Visibilité: 6 km
Nuages details: nuageux 183 m
Couvert 335 m
2015/01/31 03:30 LFOA 310330Z AUTO 23005KT 6000 BKN006 OVC011 02/02 Q0984
LFSB - Bale/, France
Distance de la station: ENE 449km
Mise à jour: 31/01/2015 04:30
nuageux
nuageux
 Wind from variable
Vent: variable 6 km/h
Température: 2°C
Point de Rosée: -1°C
Humidité: 81%
Baromètre: 984 hPa
Nuages: nuageux
Visibilité: 10 km
Nuages details: Quelques Nuages 457 m
nuageux 1006 m
nuageux 1524 m
2015/01/31 03:30 LFSB 310330Z VRB03KT 9999 FEW015 BKN033 BKN050 02/M01 Q0984 TEMPO 1200 -SHSN BKN008
 
LFOB - Beauvais/, France
Distance de la station: N 296km
Mise à jour: 31/01/2015 04:30
partiellement nuageux
partiellement nuageux
 Wind from O
Vent: O 6 km/h
Température: 0°C
Point de Rosée: 0°C
Humidité: 100%
Baromètre: 982 hPa
Nuages: partiellement nuageux
Visibilité: 6 km
2015/01/31 03:30 LFOB 310330Z AUTO 26003KT 6000 NSC 00/00 Q0982
LFBE - Bergerac/, France
Distance de la station: SSO 240km
Mise à jour: 31/01/2015 04:30
Couvert
Couvert
 Wind from SSO
Vent: SSO 6 km/h
Température: 5°C
Point de Rosée: 4°C
Humidité: 93%
Baromètre: 986 hPa
Nuages: Couvert
Visibilité: 10 km
Nuages details: Couvert 671 m
2015/01/31 03:30 LFBE 310330Z AUTO 20003KT 9999 OVC022 05/04 Q0986
 
LFMU - Beziers/, France
Distance de la station: SSE 411km
Mise à jour: 31/01/2015 04:30
partiellement nuageux
partiellement nuageux
 Wind from calm
Vent: Vent calme
Température: 5°C
Point de Rosée: 3°C
Humidité: 87%
Baromètre: 986 hPa
Nuages: partiellement nuageux
Visibilité: 10 km
2015/01/31 03:30 LFMU 310330Z AUTO 00000KT 9999 NSC 05/03 Q0986
LFBZ - Biarritz/, France
Distance de la station: SO 449km
Mise à jour: 31/01/2015 04:30
nuageux
nuageux
 Wind from NO
Vent: NO 30 km/h
Température: 10°C
Wind Chill: 7°C
Point de Rosée: 5°C
Humidité: 71%
Baromètre: 989 hPa
Nuages: nuageux
Visibilité: 10 km
Nuages details: partiellement nuageux 610 m
nuageux 762 m
nuageux 914 m
2015/01/31 03:30 LFBZ 310330Z AUTO 32016KT 9999 SCT020 BKN025 BKN030 10/05 Q0989
 
LFBD - Bordeaux/, France
Distance de la station: SO 289km
Mise à jour: 31/01/2015 04:30
nuageux
nuageux
 Wind from O
Vent: O 7 km/h
Température: 4°C
Wind Chill: 2°C
Point de Rosée: 4°C
Humidité: 100%
Baromètre: 987 hPa
Nuages: nuageux
Visibilité: 10 km
Nuages details: Quelques Nuages 610 m
nuageux 1036 m
nuageux 2377 m
2015/01/31 03:30 LFBD 310330Z AUTO 27004KT 250V350 9999 FEW020 BKN034 BKN078 04/04 Q0987
LFAQ - Bray/, France
Distance de la station: N 358km
Mise à jour: 31/01/2015 04:30
nuageux
nuageux
 Wind from SSO
Vent: SSO 7 km/h
Température: 0°C
Wind Chill: -3°C
Point de Rosée: -1°C
Humidité: 93%
Baromètre: 981 hPa
Nuages: nuageux
Visibilité: 6 km
Nuages details: Quelques Nuages 823 m
partiellement nuageux 1097 m
nuageux 1494 m
2015/01/31 03:30 LFAQ 310330Z AUTO 20004KT 6000 FEW027 SCT036 BKN049 M00/M01 Q0981
 
LFRB - Brest/, France
Distance de la station: ONO 492km
Mise à jour: 31/01/2015 04:30
partiellement nuageux
partiellement nuageux
 Wind from NNO
Vent: NNO 22 km/h
Température: 5°C
Wind Chill: 1°C
Point de Rosée: 0°C
Humidité: 70%
Baromètre: 988 hPa
Nuages: partiellement nuageux
Visibilité: 10 km
Nuages details: Quelques Nuages 549 m
Quelques Nuages 884 m
partiellement nuageux 1341 m
2015/01/31 03:30 LFRB 310330Z 33012KT 9999 FEW018CB FEW029TCU SCT044 05/M00 Q0988 NOSIG
LFRK - Caen/, France
Distance de la station: NNO 306km
Mise à jour: 31/01/2015 04:30
partiellement nuageux
partiellement nuageux
 Wind from O
Vent: O 15 km/h
Température: 2°C
Wind Chill: -2°C
Point de Rosée: 0°C
Humidité: 87%
Baromètre: 983 hPa
Nuages: partiellement nuageux
Visibilité: 10 km
2015/01/31 03:30 LFRK 310330Z AUTO 28008KT 9999 NSC 02/M00 Q0983
 
LFMK - Carcassonne/, France
Distance de la station: S 403km
Mise à jour: 31/01/2015 04:30
Couvert
Couvert
 Wind from OSO
Vent: OSO 7 km/h
Température: 4°C
Wind Chill: 2°C
Point de Rosée: 3°C
Humidité: 93%
Baromètre: 986 hPa
Nuages: Couvert
Visibilité: 10 km
Nuages details: Quelques Nuages 732 m
Couvert 4572 m
2015/01/31 03:30 LFMK 310330Z AUTO 25004KT 230V290 9999 FEW024 OVC150 04/03 Q0986
LFMV - Caumont/, France
Distance de la station: SE 410km
Mise à jour: 31/01/2015 04:30
Couvert
Couvert
 Wind from calm
Vent: Vent calme
Température: 1°C
Point de Rosée: 0°C
Humidité: 93%
Baromètre: 986 hPa
Nuages: Couvert
Visibilité: 10 km
Nuages details: Quelques Nuages 1829 m
partiellement nuageux 2134 m
Couvert 2621 m
2015/01/31 03:30 LFMV 310330Z AUTO 00000KT 9999 FEW060 SCT070 OVC086 01/M00 Q0986
 
LFBC - Cazaux/, France
Distance de la station: SO 336km
Mise à jour: 31/01/2015 04:30
faible pluie, nuageux
faible pluie, nuageux
 Wind from NO
Vent: NO 7 km/h
Température: 6°C
Wind Chill: 4°C
Point de Rosée: 5°C
Humidité: 93%
Baromètre: 987 hPa
Récapitulatifs: faible pluie
Nuages: nuageux
Visibilité: 10 km
Nuages details: Quelques Nuages 1067 m
nuageux 1250 m
nuageux 1524 m
2015/01/31 03:30 LFBC 310330Z AUTO 32004KT 280V340 9999 -RA FEW035 BKN041 BKN050 06/05 Q0987
LFPC - Creil/, France
Distance de la station: NNE 278km
Mise à jour: 31/01/2015 04:30
Couvert
Couvert
 Wind from SO
Vent: SO 4 km/h
Température: 1°C
Point de Rosée: 1°C
Humidité: 100%
Baromètre: 982 hPa
Nuages: Couvert
Visibilité: 10 km
Nuages details: Quelques Nuages 1280 m
Couvert 7315 m
2015/01/31 03:30 LFPC 310330Z AUTO 22002KT 9999 FEW042 OVC240 01/01 Q0982
 
LFLB - Chambery/, France
Distance de la station: ESE 348km
Mise à jour: 31/01/2015 04:30
partiellement nuageux
partiellement nuageux
 Wind from SSO
Vent: SSO 15 km/h
Température: 1°C
Wind Chill: -3°C
Point de Rosée: 0°C
Humidité: 93%
Baromètre: 986 hPa
Nuages: partiellement nuageux
Visibilité: 10 km
2015/01/31 03:30 LFLB 310330Z AUTO 20008KT 170V240 9999 NSC 01/M00 Q0986
LFOK - Chalons/, France
Distance de la station: NE 287km
Mise à jour: 31/01/2015 04:30
Faible neige, nuageux
Faible neige, nuageux
 Wind from SSO
Vent: SSO 17 km/h
Température: 0°C
Wind Chill: -4°C
Point de Rosée: 0°C
Humidité: 100%
Baromètre: 982 hPa
Récapitulatifs: Légères chutes de neige
Nuages: nuageux
Visibilité: 7 km
Nuages details: partiellement nuageux 1036 m
nuageux 1280 m
nuageux 1463 m
2015/01/31 03:30 LFOK 310330Z AUTO 20009KT 7000 -SN SCT034 BKN042 BKN048 00/M00 Q0982
 
LFOC - Chateaudun/, France
Distance de la station: N 137km
Mise à jour: 31/01/2015 04:30
Couvert
Couvert
 Wind from O
Vent: O 15 km/h
Température: 2°C
Wind Chill: -2°C
Point de Rosée: 2°C
Humidité: 100%
Baromètre: 983 hPa
Nuages: Couvert
Visibilité: 10 km
Nuages details: Quelques Nuages 213 m
Couvert 2560 m
2015/01/31 03:30 LFOC 310330Z AUTO 28008KT 9999 FEW007 OVC084 02/02 Q0983
LFLX - Chateauroux/, France
Distance de la station: NE 4km
Mise à jour: 31/01/2015 04:30
Couvert
Couvert
 Wind from O
Vent: O 13 km/h
Température: 3°C
Wind Chill: -1°C
Point de Rosée: 2°C
Humidité: 93%
Baromètre: 984 hPa
Nuages: Couvert
Visibilité: 10 km
Nuages details: nuageux 274 m
nuageux 1036 m
Couvert 4572 m
2015/01/31 03:30 LFLX 310330Z AUTO 27007KT 9999 BKN009 BKN034 OVC150 03/02 Q0984
 
LFPG - Charles De Gaulle/, France
Distance de la station: NNE 252km
Mise à jour: 31/01/2015 04:30
faible pluie, nuageux
faible pluie, nuageux
 Wind from OSO
Vent: OSO 7 km/h
Température: 2°C
Wind Chill: 0°C
Point de Rosée: 1°C
Humidité: 93%
Baromètre: 982 hPa
Récapitulatifs: faible pluie
Nuages: nuageux
Visibilité: 10 km
Nuages details: nuageux 213 m
2015/01/31 03:30 LFPG 310330Z 25004KT 9999 -RA BKN007 02/01 Q0982 NOSIG
LFRC - Cherbourg/, France
Distance de la station: NO 390km
Mise à jour: 31/01/2015 04:30
Quelques Nuages
Quelques Nuages
 Wind from ONO
Vent: ONO 22 km/h
Température: 5°C
Wind Chill: 1°C
Point de Rosée: -2°C
Humidité: 61%
Baromètre: 983 hPa
Nuages: Quelques Nuages
Visibilité: 10 km
Nuages details: Quelques Nuages 945 m
2015/01/31 03:30 LFRC 310330Z AUTO 30012KT 260V330 9999 FEW031 05/M02 Q0983
 
LFLC - Clermont/, France
Distance de la station: SE 163km
Mise à jour: 31/01/2015 04:30
nuageux
nuageux
 Wind from variable
Vent: variable 4 km/h
Température: 1°C
Point de Rosée: 0°C
Humidité: 93%
Baromètre: 984 hPa
Nuages: nuageux
Visibilité: 10 km
Nuages details: nuageux 549 m
nuageux 792 m
2015/01/31 03:30 LFLC 310330Z VRB02KT 9999 BKN018 BKN026 01/M00 Q0984 NOSIG
LFBG - Cognac/, France
Distance de la station: SO 200km
Mise à jour: 31/01/2015 04:30
nuageux
nuageux
 Wind from OSO
Vent: OSO 7 km/h
Température: 5°C
Wind Chill: 3°C
Point de Rosée: 3°C
Humidité: 87%
Baromètre: 987 hPa
Nuages: nuageux
Visibilité: 10 km
Nuages details: Quelques Nuages 823 m
nuageux 1097 m
nuageux 1402 m
2015/01/31 03:30 LFBG 310330Z AUTO 25004KT 9999 FEW027 BKN036 BKN046 05/03 Q0987
 
LFBY - Dax/, France
Distance de la station: SSO 411km
Mise à jour: 31/01/2015 04:00

 Wind from SO
Vent: SO 11 km/h
Température: 7°C
Wind Chill: 5°C
Point de Rosée: 5°C
Humidité: 87%
Baromètre: 987 hPa
Visibilité: 10 km
2015/01/31 03:00 LFBY 310300Z AUTO 23006KT 9999 // ////// 07/05 Q0987
LFSD - Dijon/, France
Distance de la station: ENE 261km
Mise à jour: 31/01/2015 04:30
partiellement nuageux
partiellement nuageux
 Wind from S
Vent: S 7 km/h
Température: 0°C
Wind Chill: -3°C
Point de Rosée: -1°C
Humidité: 93%
Baromètre: 984 hPa
Nuages: partiellement nuageux
Visibilité: 10 km
2015/01/31 03:30 LFSD 310330Z AUTO 17004KT 9999 NSC M00/M01 Q0984
 
LFRD - Dinard/, France
Distance de la station: NO 342km
Mise à jour: 31/01/2015 04:30
Orage
Orage
 Wind from ONO
Vent: ONO 15 km/h
Température: 3°C
Wind Chill: -1°C
Point de Rosée: 1°C
Humidité: 87%
Baromètre: 985 hPa
Nuages: Orage
Visibilité: 10 km
Nuages details: partiellement nuageux 457 m
nuageux 671 m
nuageux 1250 m
2015/01/31 03:30 LFRD 310330Z AUTO 30008KT 270V330 9999 SCT015/// BKN022/// BKN041/// ///CB 03/01 Q0985
LFGJ - Dole/, France
Distance de la station: E 286km
Mise à jour: 31/01/2015 04:30
Couvert
Couvert
 Wind from S
Vent: S 11 km/h
Température: 1°C
Wind Chill: -2°C
Point de Rosée: 0°C
Humidité: 93%
Baromètre: 985 hPa
Nuages: Couvert
Visibilité: 10 km
Nuages details: Quelques Nuages 1463 m
Couvert 3048 m
2015/01/31 03:30 LFGJ 310330Z AUTO 18006KT 9999 FEW048 OVC100 01/M00 Q0985
 
LFOE - Evreux/, France
Distance de la station: N 247km
Mise à jour: 31/01/2015 04:30
Couvert
Couvert
 Wind from O
Vent: O 11 km/h
Température: 1°C
Wind Chill: -2°C
Point de Rosée: 1°C
Humidité: 100%
Baromètre: 982 hPa
Nuages: Couvert
Visibilité: 10 km
Nuages details: Quelques Nuages 975 m
Couvert 3048 m
2015/01/31 03:30 LFOE 310330Z AUTO 26006KT 9999 FEW032 OVC100 01/01 Q0982
LFMT - Frejorgues/, France
Distance de la station: SSE 403km
Mise à jour: 31/01/2015 04:30
nuageux
nuageux
 Wind from O
Vent: O 13 km/h
Température: 5°C
Wind Chill: 2°C
Point de Rosée: 1°C
Humidité: 76%
Baromètre: 986 hPa
Nuages: nuageux
Visibilité: 10 km
Nuages details: Quelques Nuages 1402 m
nuageux 2195 m
2015/01/31 03:30 LFMT 310330Z 28007KT 9999 FEW046 BKN072 05/01 Q0986 NOSIG
 
LFMI - Istres/, France
Distance de la station: SE 446km
Mise à jour: 31/01/2015 04:30
partiellement nuageux
partiellement nuageux
 Wind from N
Vent: N 6 km/h
Température: 2°C
Point de Rosée: 1°C
Humidité: 93%
Baromètre: 986 hPa
Nuages: partiellement nuageux
Visibilité: 10 km
2015/01/31 03:30 LFMI 310330Z AUTO 01003KT 9999 NSC 02/01 Q0986
LFLS - Grenoble/, France
Distance de la station: ESE 323km
Mise à jour: 31/01/2015 04:30
Couvert
Couvert
 Wind from E
Vent: E 13 km/h
Température: 0°C
Wind Chill: -4°C
Point de Rosée: -1°C
Humidité: 93%
Baromètre: 985 hPa
Nuages: Couvert
Visibilité: 10 km
Nuages details: Couvert 1890 m
2015/01/31 03:30 LFLS 310330Z AUTO 09007KT 9999 OVC062 00/M01 Q0985
 
LFBH - La Rochelle/, France
Distance de la station: OSO 229km
Mise à jour: 31/01/2015 04:30
partiellement nuageux
partiellement nuageux
 Wind from ONO
Vent: ONO 9 km/h
Température: 4°C
Wind Chill: 2°C
Point de Rosée: 3°C
Humidité: 93%
Baromètre: 987 hPa
Nuages: partiellement nuageux
Visibilité: 10 km
2015/01/31 03:30 LFBH 310330Z AUTO 30005KT 9999 NSC 04/03 Q0987
LFRI - La Roche Sur Yon/, France
Distance de la station: O 233km
Mise à jour: 31/01/2015 04:30
partiellement nuageux
partiellement nuageux
 Wind from ONO
Vent: ONO 9 km/h
Température: 2°C
Wind Chill: -1°C
Point de Rosée: 1°C
Humidité: 93%
Baromètre: 986 hPa
Nuages: partiellement nuageux
Visibilité: 10 km
2015/01/31 03:30 LFRI 310330Z AUTO 29005KT 9999 NSC 02/01 Q0986
 
LFOH - Le Havre/, France
Distance de la station: NNO 323km
Mise à jour: 31/01/2015 04:30
Orage
Orage
 Wind from NO
Vent: NO 26 km/h
Température: 5°C
Wind Chill: 1°C
Point de Rosée: -1°C
Humidité: 66%
Baromètre: 982 hPa
Nuages: Orage
Visibilité: 10 km
Nuages details: Quelques Nuages 305 m
partiellement nuageux 945 m
nuageux 2804 m
2015/01/31 03:30 LFOH 310330Z AUTO 31014KT 9999 FEW010/// SCT031/// BKN092/// ///CB 05/M01 Q0982
LFRM - Le Mans/, France
Distance de la station: NO 166km
Mise à jour: 31/01/2015 04:30
nuageux
nuageux
 Wind from OSO
Vent: OSO 7 km/h
Température: 2°C
Wind Chill: 0°C
Point de Rosée: 1°C
Humidité: 93%
Baromètre: 984 hPa
Nuages: nuageux
Visibilité: 10 km
Nuages details: Quelques Nuages 914 m
partiellement nuageux 1433 m
nuageux 1707 m
2015/01/31 03:30 LFRM 310330Z AUTO 24004KT 210V270 9999 FEW030 SCT047 BKN056 02/01 Q0984
 
LFRJ - Landivisiau/, France
Distance de la station: ONO 476km
Mise à jour: 31/01/2015 04:30
Orage
Orage
 Wind from N
Vent: N 11 km/h
Température: 3°C
Wind Chill: 0°C
Point de Rosée: 0°C
Humidité: 81%
Baromètre: 988 hPa
Nuages: Orage
Visibilité: 10 km
Nuages details: Quelques Nuages 914 m
partiellement nuageux 1158 m
2015/01/31 03:30 LFRJ 310330Z AUTO 35006KT 310V030 9999 FEW030/// SCT038/// ///TCU 03/00 Q0988
LFRO - Lannion/, France
Distance de la station: ONO 441km
Mise à jour: 31/01/2015 04:30
nuageux
nuageux
 Wind from NO
Vent: NO 20 km/h
Température: 6°C
Wind Chill: 2°C
Point de Rosée: -1°C
Humidité: 61%
Baromètre: 986 hPa
Nuages: nuageux
Visibilité: 10 km
Nuages details: nuageux 1128 m
nuageux 1311 m
nuageux 1494 m
2015/01/31 03:30 LFRO 310330Z AUTO 32011KT 290V350 9999 BKN037 BKN043 BKN049 06/M01 Q0986
 
LFRL - Lanveoc/, France
Distance de la station: ONO 485km
Mise à jour: 31/01/2015 04:30
Orage
Orage
 Wind from NO
Vent: NO 28 km/h, Rafale: 46 km/h
Température: 6°C
Wind Chill: 2°C
Point de Rosée: 0°C
Humidité: 66%
Baromètre: 988 hPa
Nuages: Orage
Visibilité: 10 km
Nuages details: Quelques Nuages 1341 m
2015/01/31 03:30 LFRL 310330Z AUTO 31015G25KT 9999 FEW044/// ///CB 06/M00 Q0988
LFBL - Limoges/, France
Distance de la station: SSO 113km
Mise à jour: 31/01/2015 04:30
Couvert
Couvert
 Wind from OSO
Vent: OSO 7 km/h
Température: 2°C
Wind Chill: 0°C
Point de Rosée: 2°C
Humidité: 100%
Baromètre: 984 hPa
Nuages: Couvert
Visibilité: 10 km
Nuages details: Couvert 122 m
2015/01/31 03:30 LFBL 310330Z AUTO 25004KT 9999 OVC004 02/02 Q0984
 
LFQQ - Lille/, France
Distance de la station: NNE 430km
Mise à jour: 31/01/2015 04:30
partiellement nuageux
partiellement nuageux
 Wind from calm
Vent: Vent calme
Température: 0°C
Point de Rosée: -1°C
Humidité: 93%
Baromètre: 980 hPa
Nuages: partiellement nuageux
Visibilité: 10 km
2015/01/31 03:30 LFQQ 310330Z AUTO 00000KT 9999 NSC 00/M01 Q0980
LFRH - Lorient/, France
Distance de la station: ONO 401km
Mise à jour: 31/01/2015 04:30
nuageux
nuageux
 Wind from NO
Vent: NO 9 km/h
Température: 2°C
Wind Chill: -1°C
Point de Rosée: 1°C
Humidité: 93%
Baromètre: 988 hPa
Nuages: nuageux
Visibilité: 10 km
Nuages details: Quelques Nuages 488 m
partiellement nuageux 2438 m
nuageux 4572 m
2015/01/31 03:30 LFRH 310330Z AUTO 31005KT 9999 FEW016 SCT080 BKN150 02/01 Q0988
 
LFLY - Lyon/, France
Distance de la station: ESE 279km
Mise à jour: 31/01/2015 04:30
Couvert
Couvert
 Wind from variable
Vent: variable 4 km/h
Température: 1°C
Point de Rosée: -1°C
Humidité: 87%
Baromètre: 985 hPa
Nuages: Couvert
Visibilité: 10 km
Nuages details: Couvert 1646 m
2015/01/31 03:30 LFLY 310330Z AUTO VRB02KT 9999 OVC054 01/M01 Q0985
LFLL - Lyon/Satolas, France
Distance de la station: ESE 287km
Mise à jour: 31/01/2015 04:30
nuageux
nuageux
 Wind from SE
Vent: SE 13 km/h
Température: 1°C
Wind Chill: -3°C
Point de Rosée: -1°C
Humidité: 87%
Baromètre: 985 hPa
Nuages: nuageux
Visibilité: 10 km
Nuages details: Quelques Nuages 1311 m
nuageux 1737 m
2015/01/31 03:30 LFLL 310330Z 13007KT 9999 FEW043 BKN057 01/M01 Q0985 NOSIG
 
LFSX - Luxeuil/, France
Distance de la station: ENE 366km
Mise à jour: 31/01/2015 04:30
partiellement nuageux
partiellement nuageux
 Wind from variable
Vent: variable 4 km/h
Température: 0°C
Point de Rosée: -1°C
Humidité: 93%
Baromètre: 984 hPa
Nuages: partiellement nuageux
Visibilité: 10 km
2015/01/31 03:30 LFSX 310330Z AUTO VRB02KT 9999 NSC 00/M01 Q0984
LFJR - Marce/, France
Distance de la station: NO 134km
Mise à jour: 31/01/2015 04:30
Couvert
Couvert
 Wind from O
Vent: O 9 km/h
Température: 2°C
Wind Chill: -1°C
Point de Rosée: 1°C
Humidité: 93%
Baromètre: 985 hPa
Nuages: Couvert
Visibilité: 10 km
Nuages details: partiellement nuageux 1250 m
nuageux 1433 m
Couvert 1707 m
2015/01/31 03:30 LFJR 310330Z AUTO 26005KT 9999 SCT041 BKN047 OVC056 02/01 Q0985
 
LFML - Marseille/, France
Distance de la station: SE 466km
Mise à jour: 31/01/2015 04:30
clair
clair
 Wind from variable
Vent: variable 4 km/h
Température: 3°C
Point de Rosée: 1°C
Humidité: 87%
Baromètre: 986 hPa
Récapitulatifs: clair
Visibilité: supérieure à 10 km
2015/01/31 03:30 LFML 310330Z VRB02KT CAVOK 03/01 Q0986 NOSIG
LFPM - Melun/, France
Distance de la station: NNE 213km
Mise à jour: 31/01/2015 04:30
Broulliard, Couvert
Broulliard, Couvert
 Wind from SO
Vent: SO 6 km/h
Température: 1°C
Point de Rosée: 1°C
Humidité: 100%
Baromètre: 982 hPa
Récapitulatifs: Broulliard
Nuages: Couvert
Visibilité: 4 km
Nuages details: Quelques Nuages 91 m
nuageux 335 m
Couvert 488 m
2015/01/31 03:30 LFPM 310330Z AUTO 22003KT 3900 BR FEW003 BKN011 OVC016 01/01 Q0982
 
LFJL - Metz-Nancy-Lorra/, France
Distance de la station: NE 416km
Mise à jour: 31/01/2015 04:30
Faible neige, Couvert
Faible neige, Couvert
 Wind from SSO
Vent: SSO 20 km/h
Température: 0°C
Wind Chill: -6°C
Point de Rosée: -1°C
Humidité: 93%
Baromètre: 982 hPa
Récapitulatifs: Légères chutes de neige
Nuages: Couvert
Visibilité: 9 km
Nuages details: Quelques Nuages 518 m
nuageux 1189 m
Couvert 1372 m
2015/01/31 03:30 LFJL 310330Z AUTO 20011KT 9000 -SN FEW017 BKN039 OVC045 00/M01 Q0982
LFBM - Mont-De-Marsan/, France
Distance de la station: SSO 365km
Mise à jour: 31/01/2015 04:30
faible pluie, Orage
faible pluie, Orage
 Wind from O
Vent: O 11 km/h
Température: 6°C
Wind Chill: 4°C
Point de Rosée: 5°C
Humidité: 93%
Baromètre: 988 hPa
Récapitulatifs: faible pluie
Nuages: Orage
Visibilité: 10 km
Nuages details: Quelques Nuages 732 m
nuageux 975 m
nuageux 1219 m
2015/01/31 03:30 LFBM 310330Z AUTO 28006KT 9999 -RA FEW024/// BKN032/// BKN040/// ///CB 06/05 Q0988
 
LFSO - Nancy/, France
Distance de la station: ENE 375km
Mise à jour: 31/01/2015 04:30
partiellement nuageux
partiellement nuageux
 Wind from SSO
Vent: SSO 15 km/h
Température: 0°C
Wind Chill: -4°C
Point de Rosée: -1°C
Humidité: 93%
Baromètre: 982 hPa
Nuages: partiellement nuageux
Visibilité: 10 km
2015/01/31 03:30 LFSO 310330Z AUTO 20008KT 9999 NSC M00/M01 Q0982
LFRS - Nantes/, France
Distance de la station: O 252km
Mise à jour: 31/01/2015 04:30
partiellement nuageux
partiellement nuageux
 Wind from ONO
Vent: ONO 11 km/h
Température: 2°C
Wind Chill: -1°C
Point de Rosée: 0°C
Humidité: 87%
Baromètre: 986 hPa
Nuages: partiellement nuageux
Visibilité: 10 km
2015/01/31 03:30 LFRS 310330Z AUTO 29006KT 9999 NSC 02/00 Q0986
 
LFTW - Nimes/, France
Distance de la station: SE 402km
Mise à jour: 31/01/2015 04:30
partiellement nuageux
partiellement nuageux
 Wind from variable
Vent: variable 4 km/h
Température: 3°C
Point de Rosée: 0°C
Humidité: 81%
Baromètre: 986 hPa
Nuages: partiellement nuageux
Visibilité: 10 km
2015/01/31 03:30 LFTW 310330Z AUTO VRB02KT 9999 NSC 03/00 Q0986
LFMO - Orange/, France
Distance de la station: SE 387km
Mise à jour: 31/01/2015 04:30
partiellement nuageux
partiellement nuageux
 Wind from NO
Vent: NO 6 km/h
Température: 0°C
Point de Rosée: -1°C
Humidité: 93%
Baromètre: 986 hPa
Nuages: partiellement nuageux
Visibilité: 10 km
2015/01/31 03:30 LFMO 310330Z AUTO 32003KT 9999 NSC 00/M01 Q0986
 
LFOJ - Orleans/, France
Distance de la station: N 128km
Mise à jour: 31/01/2015 04:30
nuageux
nuageux
 Wind from O
Vent: O 15 km/h
Température: 2°C
Wind Chill: -2°C
Point de Rosée: 1°C
Humidité: 93%
Baromètre: 983 hPa
Nuages: nuageux
Visibilité: 7 km
Nuages details: Quelques Nuages 213 m
partiellement nuageux 1311 m
nuageux 2499 m
2015/01/31 03:30 LFOJ 310330Z AUTO 26008KT 7000 FEW007 SCT043 BKN082 02/01 Q0983
LFPB - Paris/, France
Distance de la station: NNE 246km
Mise à jour: 31/01/2015 04:30
faible pluie, nuageux
faible pluie, nuageux
 Wind from O
Vent: O 6 km/h
Température: 3°C
Point de Rosée: 2°C
Humidité: 93%
Baromètre: 982 hPa
Récapitulatifs: faible pluie
Nuages: nuageux
Visibilité: 10 km
Nuages details: nuageux 244 m
nuageux 1036 m
nuageux 1280 m
2015/01/31 03:30 LFPB 310330Z AUTO 27003KT 240V300 9999 -RA BKN008 BKN034 BKN042 03/02 Q0982
 
LFPO - Paris/Orly/, France
Distance de la station: NNE 218km
Mise à jour: 31/01/2015 04:30
nuageux
nuageux
 Wind from ONO
Vent: ONO 7 km/h
Température: 2°C
Wind Chill: 0°C
Point de Rosée: 1°C
Humidité: 93%
Baromètre: 982 hPa
Nuages: nuageux
Visibilité: 10 km
Nuages details: nuageux 274 m
nuageux 701 m
2015/01/31 03:30 LFPO 310330Z 29004KT 250V310 9999 BKN009 BKN023 02/01 Q0982 TEMPO 2500 -SHRASN
LFMP - Perpignan/, France
Distance de la station: SSE 465km
Mise à jour: 31/01/2015 04:30
Couvert
Couvert
 Wind from NNO
Vent: NNO 7 km/h
Température: 6°C
Wind Chill: 4°C
Point de Rosée: 2°C
Humidité: 76%
Baromètre: 986 hPa
Nuages: Couvert
Visibilité: 10 km
Nuages details: Quelques Nuages 1189 m
partiellement nuageux 1494 m
Couvert 1707 m
2015/01/31 03:30 LFMP 310330Z AUTO 34004KT 300V020 9999 // FEW039 SCT049 OVC056 06/02 Q0986
 
LFBI - Poitiers/, France
Distance de la station: OSO 108km
Mise à jour: 31/01/2015 04:30
nuageux
nuageux
 Wind from O
Vent: O 9 km/h
Température: 3°C
Wind Chill: 0°C
Point de Rosée: 1°C
Humidité: 87%
Baromètre: 985 hPa
Nuages: nuageux
Visibilité: 10 km
Nuages details: Quelques Nuages 1128 m
nuageux 6096 m
nuageux 7010 m
2015/01/31 03:30 LFBI 310330Z AUTO 27005KT 9999 FEW037 BKN200 BKN230 03/01 Q0985
LFRQ - Quimper/, France
Distance de la station: ONO 458km
Mise à jour: 31/01/2015 04:30
partiellement nuageux
partiellement nuageux
 Wind from NNO
Vent: NNO 11 km/h
Température: 4°C
Wind Chill: 1°C
Point de Rosée: 0°C
Humidité: 75%
Baromètre: 988 hPa
Nuages: partiellement nuageux
Visibilité: 10 km
Nuages details: Quelques Nuages 1219 m
partiellement nuageux 2134 m
2015/01/31 03:30 LFRQ 310330Z AUTO 33006KT 9999 FEW040 SCT070 04/00 Q0988
 
LFRN - Rennes/, France
Distance de la station: ONO 291km
Mise à jour: 31/01/2015 04:30
nuageux
nuageux
 Wind from ONO
Vent: ONO 9 km/h
Température: 3°C
Wind Chill: 0°C
Point de Rosée: 2°C
Humidité: 93%
Baromètre: 986 hPa
Nuages: nuageux
Visibilité: 10 km
Nuages details: nuageux 823 m
nuageux 975 m
nuageux 2621 m
2015/01/31 03:30 LFRN 310330Z AUTO 30005KT 9999 BKN027 BKN032 BKN086 03/02 Q0986
LFCR - Rodez/, France
Distance de la station: SSE 277km
Mise à jour: 31/01/2015 04:30
Couvert
Couvert
 Wind from OSO
Vent: OSO 6 km/h
Température: 1°C
Point de Rosée: 0°C
Humidité: 93%
Baromètre: 984 hPa
Nuages: Couvert
Visibilité: 7 km
Nuages details: nuageux 152 m
Couvert 305 m
2015/01/31 03:30 LFCR 310330Z AUTO 25003KT 7000 BKN005 OVC010 01/00 Q0984
 
LFYR - Romorantin/, France
Distance de la station: N 56km
Mise à jour: 31/01/2015 04:30
Couvert
Couvert
 Wind from variable
Vent: variable 6 km/h
Température: 3°C
Point de Rosée: 3°C
Humidité: 100%
Baromètre: 984 hPa
Nuages: Couvert
Visibilité: 10 km
Nuages details: nuageux 244 m
Couvert 975 m
2015/01/31 03:30 LFYR 310330Z AUTO VRB03KT 9999 BKN008 OVC032 03/03 Q0984
LFOP - Rouen/, France
Distance de la station: N 286km
Mise à jour: 31/01/2015 04:30
Broulliard, nuageux
Broulliard, nuageux
 Wind from SO
Vent: SO 9 km/h
Température: 0°C
Wind Chill: -3°C
Point de Rosée: -1°C
Humidité: 93%
Baromètre: 982 hPa
Récapitulatifs: Broulliard
Nuages: nuageux
Visibilité: 4 km
Nuages details: Quelques Nuages 244 m
partiellement nuageux 1006 m
nuageux 1829 m
2015/01/31 03:30 LFOP 310330Z AUTO 22005KT 4300 BR FEW008 SCT033 BKN060 M00/M01 Q0982
 
LFMY - Salon/, France
Distance de la station: SE 446km
Mise à jour: 31/01/2015 04:30
partiellement nuageux
partiellement nuageux
 Wind from calm
Vent: Vent calme
Température: 1°C
Point de Rosée: 0°C
Humidité: 93%
Baromètre: 986 hPa
Nuages: partiellement nuageux
Visibilité: 10 km
2015/01/31 03:30 LFMY 310330Z AUTO 00000KT 9999 NSC 01/M00 Q0986
LFST - Strasbourg/, France
Distance de la station: ENE 483km
Mise à jour: 31/01/2015 04:30
Couvert
Couvert
 Wind from SSO
Vent: SSO 7 km/h
Température: 1°C
Wind Chill: -2°C
Point de Rosée: 0°C
Humidité: 93%
Baromètre: 983 hPa
Nuages: Couvert
Visibilité: 10 km
Nuages details: Couvert 1067 m
2015/01/31 03:30 LFST 310330Z AUTO 21004KT 9999 OVC035 01/M00 Q0983
 
LFRT - Saint-Brieuc/, France
Distance de la station: ONO 388km
Mise à jour: 30/01/2015 23:00
Pas à jour
Quelques Nuages
Quelques Nuages
 Wind from O
Vent: O 11 km/h
Température: 2°C
Wind Chill: -1°C
Point de Rosée: 1°C
Humidité: 93%
Baromètre: 985 hPa
Nuages: Quelques Nuages
Visibilité: 10 km
Nuages details: Quelques Nuages 975 m
2015/01/30 22:00 LFRT 302200Z AUTO 27006KT 9999 FEW032 02/01 Q0985
LFSI - St. Dizier/, France
Distance de la station: NE 313km
Mise à jour: 31/01/2015 04:30
Couvert
Couvert
 Wind from S
Vent: S 9 km/h
Température: 1°C
Wind Chill: -2°C
Point de Rosée: 0°C
Humidité: 93%
Baromètre: 983 hPa
Nuages: Couvert
Visibilité: 10 km
Nuages details: nuageux 1036 m
Couvert 1890 m
2015/01/31 03:30 LFSI 310330Z AUTO 19005KT 9999 BKN034 OVC062 01/00 Q0983
 
LFMH - St Etienne/, France
Distance de la station: SE 247km
Mise à jour: 31/01/2015 04:30
Couvert
Couvert
 Wind from S
Vent: S 11 km/h
Température: 2°C
Wind Chill: -1°C
Point de Rosée: -1°C
Humidité: 81%
Baromètre: 984 hPa
Nuages: Couvert
Visibilité: 10 km
Nuages details: Couvert 1128 m
2015/01/31 03:30 LFMH 310330Z AUTO 18006KT 9999 OVC037 02/M01 Q0984
LFRG - St Gatien/, France
Distance de la station: NNO 305km
Mise à jour: 31/01/2015 04:30
Light snow rain, Orage
Light snow rain, Orage
 Wind from NO
Vent: NO 17 km/h
Température: 2°C
Wind Chill: -2°C
Point de Rosée: 0°C
Humidité: 87%
Baromètre: 983 hPa
Récapitulatifs: Light Snow Rain
Nuages: Orage
Visibilité: 10 km
Nuages details: Quelques Nuages 335 m
partiellement nuageux 549 m
nuageux 823 m
2015/01/31 03:30 LFRG 310330Z AUTO 31009KT 280V350 9999 -SNRA FEW011/// SCT018/// BKN027/// ///CB 02/00 Q0983
 
LFRZ - St. Nazaire/, France
Distance de la station: ONO 297km
Mise à jour: 31/01/2015 04:30
partiellement nuageux
partiellement nuageux
 Wind from ONO
Vent: ONO 11 km/h
Température: 3°C
Wind Chill: 0°C
Point de Rosée: 1°C
Humidité: 87%
Baromètre: 987 hPa
Nuages: partiellement nuageux
Visibilité: 10 km
2015/01/31 03:30 LFRZ 310330Z AUTO 30006KT 9999 NSC 03/01 Q0987
LFLN - Saint Yan/, France
Distance de la station: ESE 184km
Mise à jour: 31/01/2015 04:30
Couvert
Couvert
 Wind from S
Vent: S 9 km/h
Température: 1°C
Wind Chill: -2°C
Point de Rosée: 0°C
Humidité: 93%
Baromètre: 984 hPa
Nuages: Couvert
Visibilité: 6 km
Nuages details: Couvert 518 m
2015/01/31 03:30 LFLN 310330Z AUTO 17005KT 6000 OVC017 01/00 Q0984
 
LFBT - Tarbes/, France
Distance de la station: SSO 427km
Mise à jour: 31/01/2015 04:30
faible pluie, Orage
faible pluie, Orage
 Wind from OSO
Vent: OSO 24 km/h
Température: 4°C
Wind Chill: -1°C
Point de Rosée: 3°C
Humidité: 93%
Baromètre: 987 hPa
Récapitulatifs: faible pluie
Nuages: Orage
Visibilité: 10 km
Nuages details: partiellement nuageux 518 m
nuageux 792 m
nuageux 1341 m
2015/01/31 03:30 LFBT 310330Z AUTO 25013KT 9999 -RA SCT017/// BKN026/// BKN044/// ///TCU 04/03 Q0987
LFSL - Toul/, France
Distance de la station: NE 356km
Mise à jour: 31/01/2015 04:30
faible pluie, Couvert
faible pluie, Couvert
 Wind from calm
Vent: Vent calme
Température: 3°C
Point de Rosée: 2°C
Humidité: 93%
Baromètre: 985 hPa
Récapitulatifs: faible pluie
Nuages: Couvert
Visibilité: 10 km
Nuages details: Couvert 549 m
2015/01/31 03:30 LFSL 310330Z AUTO 00000KT 9999 -RA OVC018 03/02 Q0985
 
LFBO - Toulouse/, France
Distance de la station: S 357km
Mise à jour: 31/01/2015 04:30
Orage
Orage
 Wind from SSO
Vent: SSO 9 km/h
Température: 4°C
Wind Chill: 2°C
Point de Rosée: 3°C
Humidité: 93%
Baromètre: 987 hPa
Nuages: Orage
Visibilité: 10 km
Nuages details: Quelques Nuages 122 m
partiellement nuageux 427 m
nuageux 1219 m
2015/01/31 03:30 LFBO 310330Z AUTO 20005KT 9999 FEW004/// SCT014/// BKN040/// ///TCU 04/03 Q0987
LFOT - Tours/, France
Distance de la station: NO 100km
Mise à jour: 31/01/2015 04:30
nuageux
nuageux
 Wind from ONO
Vent: ONO 7 km/h
Température: 2°C
Wind Chill: 0°C
Point de Rosée: 1°C
Humidité: 93%
Baromètre: 984 hPa
Nuages: nuageux
Visibilité: 10 km
Nuages details: Quelques Nuages 152 m
partiellement nuageux 1524 m
nuageux 2438 m
2015/01/31 03:30 LFOT 310330Z 30004KT 250V320 9999 FEW005 SCT050 BKN080 02/01 Q0984 NOSIG
 
LFPN - Toussus Le Noble/, France
Distance de la station: N 217km
Mise à jour: 31/01/2015 04:30
nuageux
nuageux
 Wind from ONO
Vent: ONO 13 km/h
Température: 2°C
Wind Chill: -1°C
Point de Rosée: 1°C
Humidité: 93%
Baromètre: 982 hPa
Nuages: nuageux
Visibilité: 10 km
Nuages details: nuageux 213 m
nuageux 518 m
nuageux 914 m
2015/01/31 03:30 LFPN 310330Z AUTO 30007KT 9999 BKN007 BKN017 BKN030 02/01 Q0982
LFPV - Villacoublay/, France
Distance de la station: N 220km
Mise à jour: 31/01/2015 04:30
Couvert
Couvert
 Wind from ONO
Vent: ONO 13 km/h
Température: 2°C
Wind Chill: -1°C
Point de Rosée: 1°C
Humidité: 93%
Baromètre: 982 hPa
Nuages: Couvert
Visibilité: 10 km
Nuages details: Couvert 152 m
2015/01/31 03:30 LFPV 310330Z AUTO 29007KT 9999 OVC005 02/01 Q0982